createdAt,value
2019-02-20T00:00:52.393Z,8.30
2019-02-20T00:06:00.245Z,7.95
2019-02-20T00:11:06.575Z,8.40
2019-02-20T00:16:12.812Z,7.97
2019-02-20T00:21:20.102Z,7.77
2019-02-20T00:26:26.427Z,8.40
2019-02-20T00:31:32.734Z,8.25
2019-02-20T00:36:39.051Z,9.40
2019-02-20T00:41:45.416Z,7.58
2019-02-20T00:47:10.474Z,8.43
2019-02-20T00:52:35.144Z,8.48
2019-02-20T00:57:41.673Z,9.00
2019-02-20T01:02:48.023Z,9.03
2019-02-20T01:07:54.292Z,8.97
2019-02-20T01:13:01.882Z,8.43
2019-02-20T01:18:08.135Z,8.80
2019-02-20T01:23:15.484Z,8.30
2019-02-20T01:28:21.934Z,7.83
2019-02-20T01:33:29.656Z,9.90
2019-02-20T01:38:35.831Z,9.40
2019-02-20T01:43:42.084Z,9.93
2019-02-20T01:48:48.292Z,9.17
2019-02-20T01:53:54.670Z,9.30
2019-02-20T01:59:01.041Z,8.95
2019-02-20T02:04:10.257Z,9.13
2019-02-20T02:09:16.917Z,9.70
2019-02-20T02:14:23.384Z,9.65
2019-02-20T02:19:29.699Z,10.33
2019-02-20T02:24:35.896Z,10.27
2019-02-20T02:29:43.894Z,10.10
2019-02-20T02:34:51.095Z,10.27
2019-02-20T02:39:57.382Z,9.20
2019-02-20T02:45:05.915Z,10.10
2019-02-20T02:50:12.280Z,10.60
2019-02-20T02:55:19.907Z,11.35
2019-02-20T03:00:27.163Z,10.13
2019-02-20T03:05:33.400Z,10.40
2019-02-20T03:10:39.637Z,11.08
2019-02-20T03:15:46.333Z,10.80
2019-02-20T03:20:52.683Z,11.03
2019-02-20T03:25:58.876Z,11.22
2019-02-20T03:31:06.842Z,10.30
2019-02-20T03:36:13.171Z,10.70
2019-02-20T03:41:19.416Z,10.47
2019-02-20T03:46:27.295Z,10.70
2019-02-20T03:51:33.520Z,11.05
2019-02-20T03:56:39.744Z,12.00
2019-02-20T04:01:46.105Z,11.30
2019-02-20T04:06:54.067Z,11.90
2019-02-20T04:12:00.370Z,10.37
2019-02-20T04:17:09.519Z,11.03
2019-02-20T04:22:25.250Z,12.43
2019-02-20T04:27:35.940Z,12.27
2019-02-20T04:32:45.162Z,12.17
2019-02-20T04:37:51.475Z,11.50
2019-02-20T04:42:58.521Z,12.18
2019-02-20T04:48:05.719Z,12.25
2019-02-20T04:53:12.033Z,12.67
2019-02-20T04:58:20.311Z,13.97
2019-02-20T05:03:26.617Z,12.47
2019-02-20T05:08:32.937Z,12.50
2019-02-20T05:13:39.279Z,13.27
2019-02-20T05:18:45.517Z,12.98
2019-02-20T05:23:52.833Z,12.97
2019-02-20T05:28:59.467Z,12.80
2019-02-20T05:34:05.860Z,12.98
2019-02-20T05:39:12.207Z,13.57
2019-02-20T05:44:20.055Z,12.80
2019-02-20T05:49:26.350Z,13.20
2019-02-20T05:54:35.011Z,13.30
2019-02-20T05:59:40.805Z,13.57
2019-02-20T06:04:47.188Z,12.73
2019-02-20T06:09:53.584Z,14.10
2019-02-20T06:15:01.052Z,12.50
2019-02-20T06:20:08.954Z,12.93
2019-02-20T06:25:15.302Z,12.55
2019-02-20T06:30:21.583Z,13.78
2019-02-20T06:35:27.918Z,12.70
2019-02-20T06:40:34.246Z,14.40
2019-02-20T06:45:43.282Z,14.23
2019-02-20T06:50:49.485Z,14.95
2019-02-20T06:55:55.762Z,14.70
2019-02-20T07:01:02.047Z,14.83
2019-02-20T07:06:41.523Z,14.57
2019-02-20T07:12:59.566Z,14.40
2019-02-20T07:18:25.490Z,15.17
2019-02-20T07:23:48.405Z,15.70
2019-02-20T07:29:37.602Z,14.45
2019-02-20T07:34:44.001Z,15.53
2019-02-20T07:39:53.339Z,16.23
2019-02-20T07:45:01.063Z,15.80
2019-02-20T07:50:09.509Z,15.23
2019-02-20T07:55:16.220Z,15.03
2019-02-20T08:00:25.357Z,16.07
2019-02-20T08:05:31.654Z,17.10
2019-02-20T08:10:41.225Z,16.43
2019-02-20T08:15:47.476Z,16.62
2019-02-20T08:20:53.750Z,17.80
2019-02-20T08:26:00.234Z,17.27
2019-02-20T08:31:06.772Z,17.73
2019-02-20T08:36:13.162Z,17.82
2019-02-20T08:41:19.419Z,18.63
2019-02-20T08:46:26.630Z,18.10
2019-02-20T08:51:33.176Z,20.20
2019-02-20T08:56:39.520Z,19.77
2019-02-20T09:01:45.986Z,19.33
2019-02-20T09:06:52.352Z,19.50
2019-02-20T09:11:58.746Z,20.00
2019-02-20T09:17:05.244Z,20.53
2019-02-20T09:22:11.619Z,20.00
2019-02-20T09:27:17.965Z,19.60
2019-02-20T09:32:24.198Z,19.57
2019-02-20T09:37:30.599Z,19.63
2019-02-20T09:42:38.264Z,18.27
2019-02-20T09:47:44.607Z,18.75
2019-02-20T09:52:52.763Z,18.37
2019-02-20T09:58:01.381Z,19.27
2019-02-20T10:03:08.624Z,17.83
2019-02-20T10:08:15.293Z,18.07
2019-02-20T10:13:23.399Z,18.40
2019-02-20T10:18:29.669Z,17.50
2019-02-20T10:23:37.819Z,16.23
2019-02-20T10:28:44.103Z,15.80
2019-02-20T10:33:52.423Z,15.80
2019-02-20T10:38:58.820Z,16.12
2019-02-20T10:44:05.496Z,13.10
2019-02-20T10:49:11.989Z,13.67
2019-02-20T10:54:18.657Z,13.50
2019-02-20T10:59:25.008Z,12.63
2019-02-20T11:04:31.880Z,13.35
2019-02-20T11:09:38.116Z,13.77
2019-02-20T11:14:44.471Z,13.20
2019-02-20T11:19:50.771Z,10.95
2019-02-20T11:24:59.959Z,11.83
2019-02-20T11:30:07.710Z,10.68
2019-02-20T11:35:14.185Z,10.83
2019-02-20T11:40:20.534Z,9.78
2019-02-20T11:45:29.328Z,9.53
2019-02-20T11:50:35.582Z,10.13
2019-02-20T11:55:42.018Z,9.53
2019-02-20T12:00:48.943Z,8.73
2019-02-20T12:05:55.447Z,8.27
2019-02-20T12:11:01.806Z,8.77
2019-02-20T12:16:10.412Z,8.20
2019-02-20T12:21:16.592Z,8.05
2019-02-20T12:26:24.049Z,8.30
2019-02-20T12:31:30.762Z,6.47
2019-02-20T12:36:37.019Z,6.90
2019-02-20T12:41:43.353Z,6.67
2019-02-20T12:46:49.667Z,7.60
2019-02-20T12:51:55.888Z,6.90
2019-02-20T12:57:02.162Z,6.50
2019-02-20T13:02:08.343Z,5.93
2019-02-20T13:07:14.668Z,6.58
2019-02-20T13:12:20.965Z,7.23
2019-02-20T13:17:27.198Z,6.40
2019-02-20T13:22:33.427Z,7.23
2019-02-20T13:27:40.331Z,7.00
2019-02-20T13:32:47.857Z,7.50
2019-02-20T13:37:54.189Z,7.13
2019-02-20T13:43:01.732Z,7.62
2019-02-20T13:48:08.432Z,7.43
2019-02-20T13:53:15.085Z,7.13
2019-02-20T13:58:21.479Z,7.87
2019-02-20T14:03:27.929Z,7.53
2019-02-20T14:08:34.268Z,7.37
2019-02-20T14:13:40.763Z,8.33
2019-02-20T14:18:47.011Z,6.77
2019-02-20T14:23:53.292Z,7.60
2019-02-20T14:28:59.644Z,6.63
2019-02-20T14:34:06.174Z,7.40
2019-02-20T14:39:12.553Z,7.47
2019-02-20T14:44:20.939Z,7.10
2019-02-20T14:49:28.892Z,7.30
2019-02-20T14:54:35.309Z,7.10
2019-02-20T14:59:41.764Z,7.10
2019-02-20T15:04:48.023Z,8.53
2019-02-20T15:09:54.304Z,8.03
2019-02-20T15:15:10.103Z,8.55
2019-02-20T15:20:11.641Z,8.53
2019-02-20T15:25:19.635Z,7.87
2019-02-20T15:30:26.076Z,8.43
2019-02-20T15:35:33.047Z,8.57
2019-02-20T15:40:39.351Z,8.93
2019-02-20T15:45:47.117Z,8.63
2019-02-20T15:50:53.789Z,8.30
2019-02-20T15:56:00.694Z,8.57
2019-02-20T16:01:09.359Z,8.80
2019-02-20T16:06:15.795Z,8.30
2019-02-20T16:11:25.254Z,9.07
2019-02-20T16:16:31.741Z,9.67
2019-02-20T16:21:38.210Z,9.47
2019-02-20T16:26:44.637Z,9.73
2019-02-20T16:31:54.259Z,9.03
2019-02-20T16:37:00.637Z,9.70
2019-02-20T16:42:07.067Z,8.93
2019-02-20T16:47:13.468Z,8.83
2019-02-20T16:52:19.795Z,9.20
2019-02-20T16:57:26.782Z,8.83
2019-02-20T17:02:37.403Z,9.10
2019-02-20T17:07:44.081Z,8.57
2019-02-20T17:12:50.390Z,10.13
2019-02-20T17:17:56.760Z,10.03
2019-02-20T17:23:04.656Z,9.87
2019-02-20T17:28:10.973Z,10.50
2019-02-20T17:33:17.531Z,10.20
2019-02-20T17:38:23.828Z,9.10
2019-02-20T17:43:30.599Z,10.83
2019-02-20T17:48:37.137Z,11.50
2019-02-20T17:53:43.506Z,11.50
2019-02-20T17:58:50.214Z,10.03
2019-02-20T18:03:58.145Z,11.83
2019-02-20T18:09:07.232Z,15.90
2019-02-20T18:14:13.776Z,43.73
2019-02-20T18:19:20.159Z,34.80
2019-02-20T18:24:26.454Z,16.15
2019-02-20T18:29:32.835Z,13.10
2019-02-20T18:34:45.188Z,11.97
2019-02-20T18:39:51.859Z,12.33
2019-02-20T18:44:58.194Z,12.67
2019-02-20T18:50:06.219Z,11.63
2019-02-20T18:55:12.759Z,12.55
2019-02-20T19:00:19.041Z,12.60
2019-02-20T19:05:25.499Z,12.60
2019-02-20T19:10:36.411Z,11.73
2019-02-20T19:16:24.538Z,11.27
2019-02-20T19:22:06.620Z,12.00
2019-02-20T19:27:39.479Z,11.77
2019-02-20T19:33:25.033Z,12.98
2019-02-20T19:39:09.038Z,16.05
2019-02-20T19:44:58.234Z,15.10
2019-02-20T19:50:38.805Z,16.42
2019-02-20T19:56:14.059Z,14.03
2019-02-20T20:01:55.545Z,12.53
2019-02-20T20:07:35.154Z,11.80
2019-02-20T20:13:08.970Z,12.37
2019-02-20T20:18:32.638Z,10.25
2019-02-20T20:24:27.916Z,10.53
2019-02-20T20:30:20.542Z,10.63
2019-02-20T20:36:06.564Z,10.63
2019-02-20T20:42:10.723Z,9.93
2019-02-20T20:47:40.898Z,12.03
2019-02-20T20:53:42.115Z,12.00
2019-02-20T20:59:34.603Z,10.80
2019-02-20T21:05:32.947Z,12.43
2019-02-20T21:11:16.307Z,11.47
2019-02-20T21:16:47.295Z,12.77
2019-02-20T21:22:52.860Z,13.00
2019-02-20T21:28:23.916Z,12.93
2019-02-20T21:34:02.131Z,13.20
2019-02-20T21:39:45.268Z,13.48
2019-02-20T21:45:06.517Z,13.85
2019-02-20T21:51:08.228Z,13.37
2019-02-20T21:56:49.961Z,13.18
2019-02-20T22:02:17.487Z,13.07
2019-02-20T22:07:55.265Z,13.80
2019-02-20T22:13:48.563Z,16.10
2019-02-20T22:19:27.162Z,13.90
2019-02-20T22:25:07.867Z,14.93
2019-02-20T22:31:00.295Z,14.60
2019-02-20T22:36:42.357Z,14.40
2019-02-20T22:42:39.277Z,14.77
2019-02-20T22:48:47.813Z,15.50
2019-02-20T22:54:23.813Z,14.93
2019-02-20T23:00:02.742Z,14.87
2019-02-20T23:05:42.193Z,15.70
2019-02-20T23:11:34.361Z,16.30
2019-02-20T23:16:40.566Z,15.73
2019-02-20T23:21:46.845Z,18.53
2019-02-20T23:26:53.147Z,17.33
2019-02-20T23:31:59.481Z,17.13
2019-02-20T23:37:05.853Z,17.42
2019-02-20T23:42:12.254Z,18.47
2019-02-20T23:47:18.606Z,18.13
2019-02-20T23:52:25.415Z,17.23
2019-02-20T23:57:34.699Z,17.23
